Terminal Aerodrome Forecast
Issued by NWS

Home | Current Version | Previous Version | Text Only | Print | Product List | Glossary On
Versions: 1 2 3 4 5 6 7 8 9
000
FTUS46 KSTO 280500
TAFRBL
TAF
KRBL 280532Z 2806/2906 33004KT P6SM BKN200
     FM281700 VRB04KT P6SM FEW045 SCT250
     FM290300 33004KT P6SM SKC=

USA.gov is the U.S. government's official web portal to all federal, state and local government web resources and services.